< < Back
Terminal Aerodrome Forecast


Current Version              Previous Versions:   1  2  3  4  5  6  7  8  9  

Terminal Aerodrome Forecast

127
FTUS42 KFFC 182202 AAB
TAFATL
TAF AMD
KATL 182202Z 1822/1924 10006KT P6SM FEW015 BKN035
     FM190400 13005KT 6SM -RA OVC015
     FM190600 13006KT 4SM -SHRA BR OVC005
     FM191400 19010KT 6SM -SHRA BKN010 OVC025 PROB30 1914/1918 3SM
      TSRA BKN010CB OVC012
     FM191800 21010G16KT P6SM BKN025
     FM192200 22010G16KT P6SM BKN035=

Latest METAR

619
SAUS70 KWBC 182300 RRA
MTRATL
METAR KATL 182252Z 10005KT 10SM SCT010 SCT034 SCT110 BKN200 21/18 A2992
RMK AO2 SLP125 CB DSNT SW T02110183


USA.gov is the U.S. government's official web portal to all federal, state and local government web resources and services.